sensor_id;sensor_type;location;lat;lon;timestamp;pressure;altitude;pressure_sealevel;temperature;humidity
22930;BME280;11630;42.660;23.292;2023-01-15T00:00:31;68099.54;;;5.07;100.00
22930;BME280;11630;42.660;23.292;2023-01-15T00:03:02;68102.28;;;5.12;100.00
22930;BME280;11630;42.660;23.292;2023-01-15T00:05:36;68096.31;;;5.07;100.00
22930;BME280;11630;42.660;23.292;2023-01-15T00:08:07;68107.36;;;5.11;100.00
22930;BME280;11630;42.660;23.292;2023-01-15T00:10:38;68088.20;;;5.02;100.00
22930;BME280;11630;42.660;23.292;2023-01-15T00:13:09;68115.26;;;5.24;100.00
22930;BME280;11630;42.660;23.292;2023-01-15T00:15:40;68093.62;;;5.04;100.00
22930;BME280;11630;42.660;23.292;2023-01-15T00:18:11;68070.08;;;4.84;100.00
22930;BME280;11630;42.660;23.292;2023-01-15T00:20:42;68052.78;;;4.70;100.00
22930;BME280;11630;42.660;23.292;2023-01-15T00:23:13;68077.64;;;4.88;100.00
22930;BME280;11630;42.660;23.292;2023-01-15T00:25:44;68068.47;;;4.82;100.00
22930;BME280;11630;42.660;23.292;2023-01-15T00:28:31;68082.25;;;4.94;100.00
22930;BME280;11630;42.660;23.292;2023-01-15T00:31:02;68076.81;;;4.86;100.00
22930;BME280;11630;42.660;23.292;2023-01-15T00:33:33;68069.02;;;4.88;100.00
22930;BME280;11630;42.660;23.292;2023-01-15T00:36:04;68075.47;;;4.86;100.00
22930;BME280;11630;42.660;23.292;2023-01-15T00:38:35;68077.64;;;4.88;100.00
22930;BME280;11630;42.660;23.292;2023-01-15T00:41:07;68077.09;;;4.88;100.00
22930;BME280;11630;42.660;23.292;2023-01-15T00:43:37;68077.64;;;4.88;100.00
22930;BME280;11630;42.660;23.292;2023-01-15T00:46:08;68071.69;;;4.83;100.00
22930;BME280;11630;42.660;23.292;2023-01-15T00:48:39;68062.49;;;4.74;100.00
22930;BME280;11630;42.660;23.292;2023-01-15T00:51:09;68075.75;;;4.90;100.00
22930;BME280;11630;42.660;23.292;2023-01-15T00:53:41;68062.79;;;4.81;100.00
22930;BME280;11630;42.660;23.292;2023-01-15T00:56:11;68066.55;;;4.79;100.00
22930;BME280;11630;42.660;23.292;2023-01-15T00:58:42;68069.52;;;4.81;100.00
22930;BME280;11630;42.660;23.292;2023-01-15T01:01:13;68054.94;;;4.70;100.00
22930;BME280;11630;42.660;23.292;2023-01-15T01:03:44;68067.36;;;4.79;100.00
22930;BME280;11630;42.660;23.292;2023-01-15T01:06:15;68057.06;;;4.69;100.00
22930;BME280;11630;42.660;23.292;2023-01-15T01:08:47;68046.52;;;4.58;100.00
22930;BME280;11630;42.660;23.292;2023-01-15T01:11:20;68054.38;;;4.69;100.00
22930;BME280;11630;42.660;23.292;2023-01-15T01:13:51;68048.98;;;4.64;100.00
22930;BME280;11630;42.660;23.292;2023-01-15T01:16:30;68058.16;;;4.70;100.00
22930;BME280;11630;42.660;23.292;2023-01-15T01:19:02;68078.17;;;4.89;100.00
22930;BME280;11630;42.660;23.292;2023-01-15T01:21:32;68060.84;;;4.70;100.00
22930;BME280;11630;42.660;23.292;2023-01-15T01:24:03;68063.30;;;4.76;100.00
22930;BME280;11630;42.660;23.292;2023-01-15T01:26:35;68064.13;;;4.78;100.00
22930;BME280;11630;42.660;23.292;2023-01-15T01:29:06;68049.25;;;4.66;100.00
22930;BME280;11630;42.660;23.292;2023-01-15T01:31:37;68052.75;;;4.65;100.00
22930;BME280;11630;42.660;23.292;2023-01-15T01:34:07;68051.92;;;4.63;100.00
22930;BME280;11630;42.660;23.292;2023-01-15T01:36:41;68041.94;;;4.58;100.00
22930;BME280;11630;42.660;23.292;2023-01-15T01:39:15;68064.09;;;4.73;100.00
22930;BME280;11630;42.660;23.292;2023-01-15T01:41:47;68067.09;;;4.80;100.00
22930;BME280;11630;42.660;23.292;2023-01-15T01:47:17;68058.46;;;4.74;100.00
22930;BME280;11630;42.660;23.292;2023-01-15T01:49:56;68054.64;;;4.68;100.00
22930;BME280;11630;42.660;23.292;2023-01-15T01:52:35;68062.75;;;4.73;100.00
22930;BME280;11630;42.660;23.292;2023-01-15T01:55:04;68073.56;;;4.83;100.00
22930;BME280;11630;42.660;23.292;2023-01-15T01:57:35;68046.81;;;4.62;100.00
22930;BME280;11630;42.660;23.292;2023-01-15T02:00:06;68048.45;;;4.66;100.00
22930;BME280;11630;42.660;23.292;2023-01-15T02:02:38;68066.30;;;4.80;100.00
22930;BME280;11630;42.660;23.292;2023-01-15T02:05:14;68041.91;;;4.53;100.00
22930;BME280;11630;42.660;23.292;2023-01-15T02:07:44;68040.30;;;4.54;100.00
22930;BME280;11630;42.660;23.292;2023-01-15T02:10:18;68042.22;;;4.57;100.00
22930;BME280;11630;42.660;23.292;2023-01-15T02:12:53;68046.80;;;4.60;100.00
22930;BME280;11630;42.660;23.292;2023-01-15T02:15:30;68050.32;;;4.64;100.00
22930;BME280;11630;42.660;23.292;2023-01-15T02:18:09;68054.88;;;4.65;100.00
22930;BME280;11630;42.660;23.292;2023-01-15T02:20:57;68045.46;;;4.62;100.00
22930;BME280;11630;42.660;23.292;2023-01-15T02:29:03;68071.70;;;4.85;100.00
22930;BME280;11630;42.660;23.292;2023-01-15T02:31:37;68078.73;;;4.89;100.00
22930;BME280;11630;42.660;23.292;2023-01-15T02:34:19;68083.30;;;4.92;100.00
22930;BME280;11630;42.660;23.292;2023-01-15T02:36:49;68089.02;;;5.01;100.00
22930;BME280;11630;42.660;23.292;2023-01-15T02:39:19;68074.13;;;4.86;100.00
22930;BME280;11630;42.660;23.292;2023-01-15T02:41:53;68064.13;;;4.78;100.00
22930;BME280;11630;42.660;23.292;2023-01-15T02:44:23;68061.42;;;4.76;100.00
22930;BME280;11630;42.660;23.292;2023-01-15T02:46:58;68064.38;;;4.77;100.00
22930;BME280;11630;42.660;23.292;2023-01-15T02:49:29;68069.23;;;4.79;100.00
22930;BME280;11630;42.660;23.292;2023-01-15T02:52:09;68064.13;;;4.78;100.00
22930;BME280;11630;42.660;23.292;2023-01-15T02:54:45;68080.61;;;4.92;100.00
22930;BME280;11630;42.660;23.292;2023-01-15T02:57:16;68085.48;;;4.97;100.00
22930;BME280;11630;42.660;23.292;2023-01-15T02:59:50;68088.99;;;4.96;100.00
22930;BME280;11630;42.660;23.292;2023-01-15T03:02:26;68081.69;;;4.91;100.00
22930;BME280;11630;42.660;23.292;2023-01-15T03:05:04;68082.48;;;4.90;100.00
22930;BME280;11630;42.660;23.292;2023-01-15T03:07:36;68076.30;;;4.88;100.00
22930;BME280;11630;42.660;23.292;2023-01-15T03:10:07;68085.72;;;4.91;100.00
22930;BME280;11630;42.660;23.292;2023-01-15T03:12:46;68107.67;;;5.15;100.00
22930;BME280;11630;42.660;23.292;2023-01-15T03:15:55;68115.26;;;5.24;100.00
22930;BME280;11630;42.660;23.292;2023-01-15T03:18:49;68122.02;;;5.29;100.00
22930;BME280;11630;42.660;23.292;2023-01-15T03:21:20;68132.58;;;5.40;100.00
22930;BME280;11630;42.660;23.292;2023-01-15T03:23:51;68115.00;;;5.25;100.00
22930;BME280;11630;42.660;23.292;2023-01-15T03:26:23;68127.95;;;5.32;100.00
22930;BME280;11630;42.660;23.292;2023-01-15T03:28:53;68125.81;;;5.35;100.00
22930;BME280;11630;42.660;23.292;2023-01-15T03:31:25;68110.64;;;5.19;100.00
22930;BME280;11630;42.660;23.292;2023-01-15T03:33:56;68126.09;;;5.34;100.00
22930;BME280;11630;42.660;23.292;2023-01-15T03:36:30;68130.42;;;5.40;100.00
22930;BME280;11630;42.660;23.292;2023-01-15T03:39:01;68151.78;;;5.54;100.00
22930;BME280;11630;42.660;23.292;2023-01-15T03:44:39;68176.46;;;5.80;100.00
22930;BME280;11630;42.660;23.292;2023-01-15T03:50:15;68141.27;;;5.50;100.00
22930;BME280;11630;42.660;23.292;2023-01-15T03:55:42;68120.12;;;5.26;100.00
22930;BME280;11630;42.660;23.292;2023-01-15T03:58:16;68128.50;;;5.35;100.00
22930;BME280;11630;42.660;23.292;2023-01-15T04:00:52;68135.02;;;5.41;100.00
22930;BME280;11630;42.660;23.292;2023-01-15T04:03:25;68131.76;;;5.38;100.00
22930;BME280;11630;42.660;23.292;2023-01-15T04:05:58;68124.17;;;5.29;100.00
22930;BME280;11630;42.660;23.292;2023-01-15T04:08:31;68098.50;;;5.11;100.00
22930;BME280;11630;42.660;23.292;2023-01-15T04:11:02;68104.16;;;5.13;100.00
22930;BME280;11630;42.660;23.292;2023-01-15T04:13:33;68088.45;;;4.98;100.00
22930;BME280;11630;42.660;23.292;2023-01-15T04:16:04;68092.52;;;5.01;100.00
22930;BME280;11630;42.660;23.292;2023-01-15T04:18:35;68071.71;;;4.88;100.00
22930;BME280;11630;42.660;23.292;2023-01-15T04:21:06;68078.73;;;4.92;100.00
22930;BME280;11630;42.660;23.292;2023-01-15T04:23:36;68077.38;;;4.89;100.00
22930;BME280;11630;42.660;23.292;2023-01-15T04:26:07;68083.61;;;4.96;100.00
22930;BME280;11630;42.660;23.292;2023-01-15T04:28:37;68084.97;;;4.99;100.00
22930;BME280;11630;42.660;23.292;2023-01-15T04:31:08;68106.84;;;5.13;100.00
22930;BME280;11630;42.660;23.292;2023-01-15T04:33:39;68109.04;;;5.20;100.00
22930;BME280;11630;42.660;23.292;2023-01-15T04:36:10;68107.42;;;5.18;100.00
22930;BME280;11630;42.660;23.292;2023-01-15T04:38:40;68102.55;;;5.14;100.00
22930;BME280;11630;42.660;23.292;2023-01-15T04:41:11;68105.23;;;5.14;100.00
22930;BME280;11630;42.660;23.292;2023-01-15T04:43:58;68103.34;;;5.13;100.00
22930;BME280;11630;42.660;23.292;2023-01-15T04:49:08;68110.11;;;5.18;100.00
22930;BME280;11630;42.660;23.292;2023-01-15T04:51:38;68092.79;;;5.02;100.00
22930;BME280;11630;42.660;23.292;2023-01-15T04:54:14;68083.56;;;4.91;100.00
22930;BME280;11630;42.660;23.292;2023-01-15T04:56:47;68086.31;;;4.99;100.00
22930;BME280;11630;42.660;23.292;2023-01-15T04:59:20;68082.22;;;4.91;100.00
22930;BME280;11630;42.660;23.292;2023-01-15T05:01:51;68079.53;;;4.91;100.00
22930;BME280;11630;42.660;23.292;2023-01-15T05:04:22;68081.96;;;4.92;100.00
22930;BME280;11630;42.660;23.292;2023-01-15T05:06:52;68078.19;;;4.91;100.00
22930;BME280;11630;42.660;23.292;2023-01-15T05:09:23;68074.40;;;4.88;100.00
22930;BME280;11630;42.660;23.292;2023-01-15T05:11:54;68072.22;;;4.83;100.00
22930;BME280;11630;42.660;23.292;2023-01-15T05:14:25;68046.27;;;4.59;100.00
22930;BME280;11630;42.660;23.292;2023-01-15T05:16:56;68054.38;;;4.69;100.00
22930;BME280;11630;42.660;23.292;2023-01-15T05:19:27;68048.16;;;4.62;100.00
22930;BME280;11630;42.660;23.292;2023-01-15T05:21:57;68041.94;;;4.58;100.00
22930;BME280;11630;42.660;23.292;2023-01-15T05:24:28;68051.39;;;4.63;100.00
22930;BME280;11630;42.660;23.292;2023-01-15T05:26:59;68052.75;;;4.65;100.00
22930;BME280;11630;42.660;23.292;2023-01-15T05:29:30;68060.06;;;4.73;100.00
22930;BME280;11630;42.660;23.292;2023-01-15T05:32:01;68068.72;;;4.81;100.00
22930;BME280;11630;42.660;23.292;2023-01-15T05:34:31;68048.41;;;4.61;100.00
22930;BME280;11630;42.660;23.292;2023-01-15T05:37:02;68041.41;;;4.57;100.00
22930;BME280;11630;42.660;23.292;2023-01-15T05:39:34;68038.69;;;4.53;100.00
22930;BME280;11630;42.660;23.292;2023-01-15T05:42:04;68042.48;;;4.58;100.00
22930;BME280;11630;42.660;23.292;2023-01-15T05:44:34;67996.53;;;4.19;100.00
22930;BME280;11630;42.660;23.292;2023-01-15T05:47:05;67980.28;;;3.99;100.00
22930;BME280;11630;42.660;23.292;2023-01-15T05:49:36;67957.86;;;3.82;100.00
22930;BME280;11630;42.660;23.292;2023-01-15T05:52:06;67949.75;;;3.72;100.00
22930;BME280;11630;42.660;23.292;2023-01-15T05:54:36;67927.88;;;3.56;100.00
22930;BME280;11630;42.660;23.292;2023-01-15T05:57:09;67917.58;;;3.41;100.00
22930;BME280;11630;42.660;23.292;2023-01-15T05:59:40;67910.53;;;3.32;100.00
22930;BME280;11630;42.660;23.292;2023-01-15T06:02:10;67898.40;;;3.25;100.00
22930;BME280;11630;42.660;23.292;2023-01-15T06:04:41;67891.13;;;3.19;100.00
22930;BME280;11630;42.660;23.292;2023-01-15T06:07:11;67885.97;;;3.13;100.00
22930;BME280;11630;42.660;23.292;2023-01-15T06:09:43;67887.59;;;3.12;100.00
22930;BME280;11630;42.660;23.292;2023-01-15T06:12:13;67886.25;;;3.12;100.00
22930;BME280;11630;42.660;23.292;2023-01-15T06:14:44;67889.20;;;3.14;100.00
22930;BME280;11630;42.660;23.292;2023-01-15T06:17:15;67901.38;;;3.26;100.00
22930;BME280;11630;42.660;23.292;2023-01-15T06:19:46;67908.68;;;3.34;100.00
22930;BME280;11630;42.660;23.292;2023-01-15T06:22:17;67916.24;;;3.41;100.00
22930;BME280;11630;42.660;23.292;2023-01-15T06:24:48;67935.94;;;3.58;100.00
22930;BME280;11630;42.660;23.292;2023-01-15T06:27:19;67934.89;;;3.60;100.00
22930;BME280;11630;42.660;23.292;2023-01-15T06:29:50;67938.67;;;3.63;100.00
22930;BME280;11630;42.660;23.292;2023-01-15T06:32:20;67925.44;;;3.52;100.00
22930;BME280;11630;42.660;23.292;2023-01-15T06:34:51;67933.54;;;3.57;100.00
22930;BME280;11630;42.660;23.292;2023-01-15T06:37:22;67940.28;;;3.62;100.00
22930;BME280;11630;42.660;23.292;2023-01-15T06:39:54;67947.57;;;3.68;100.00
22930;BME280;11630;42.660;23.292;2023-01-15T06:42:24;67944.06;;;3.66;100.00
22930;BME280;11630;42.660;23.292;2023-01-15T06:45:11;67951.09;;;3.72;100.00
22930;BME280;11630;42.660;23.292;2023-01-15T06:47:58;67960.28;;;3.80;100.00
22930;BME280;11630;42.660;23.292;2023-01-15T06:50:29;67952.71;;;3.74;100.00
22930;BME280;11630;42.660;23.292;2023-01-15T06:53:00;67942.99;;;3.67;100.00
22930;BME280;11630;42.660;23.292;2023-01-15T06:55:31;67939.20;;;3.61;100.00
22930;BME280;11630;42.660;23.292;2023-01-15T06:58:03;67955.67;;;3.75;100.00
22930;BME280;11630;42.660;23.292;2023-01-15T07:00:34;67959.48;;;3.83;100.00
22930;BME280;11630;42.660;23.292;2023-01-15T07:03:05;67964.08;;;3.86;100.00
22930;BME280;11630;42.660;23.292;2023-01-15T07:05:37;67981.39;;;4.05;100.00
22930;BME280;11630;42.660;23.292;2023-01-15T07:08:07;67976.75;;;3.94;100.00
22930;BME280;11630;42.660;23.292;2023-01-15T07:10:39;67974.06;;;3.94;100.00
22930;BME280;11630;42.660;23.292;2023-01-15T07:13:10;67970.28;;;3.91;100.00
22930;BME280;11630;42.660;23.292;2023-01-15T07:15:41;67983.82;;;4.06;100.00
22930;BME280;11630;42.660;23.292;2023-01-15T07:18:11;68007.32;;;4.24;100.00
22930;BME280;11630;42.660;23.292;2023-01-15T07:20:43;68028.44;;;4.46;100.00
22930;BME280;11630;42.660;23.292;2023-01-15T07:23:14;68040.06;;;4.57;100.00
22930;BME280;11630;42.660;23.292;2023-01-15T07:25:45;68033.77;;;4.43;100.00
22930;BME280;11630;42.660;23.292;2023-01-15T07:28:15;68014.36;;;4.33;100.00
22930;BME280;11630;42.660;23.292;2023-01-15T07:30:46;68025.18;;;4.43;100.00
22930;BME280;11630;42.660;23.292;2023-01-15T07:33:17;68031.12;;;4.46;100.00
22930;BME280;11630;42.660;23.292;2023-01-15T07:35:48;68019.48;;;4.36;100.00
22930;BME280;11630;42.660;23.292;2023-01-15T07:38:19;68021.09;;;4.35;100.00
22930;BME280;11630;42.660;23.292;2023-01-15T07:40:50;68021.38;;;4.37;100.00
22930;BME280;11630;42.660;23.292;2023-01-15T07:43:21;68019.79;;;4.40;100.00
22930;BME280;11630;42.660;23.292;2023-01-15T07:46:09;68028.14;;;4.44;100.00
22930;BME280;11630;42.660;23.292;2023-01-15T07:48:56;68039.79;;;4.56;100.00
22930;BME280;11630;42.660;23.292;2023-01-15T07:51:43;68047.89;;;4.63;100.00
22930;BME280;11630;42.660;23.292;2023-01-15T07:54:14;68049.25;;;4.66;100.00
22930;BME280;11630;42.660;23.292;2023-01-15T07:56:45;68080.36;;;4.93;100.00
22930;BME280;11630;42.660;23.292;2023-01-15T07:59:17;68142.34;;;5.49;100.00
22930;BME280;11630;42.660;23.292;2023-01-15T08:01:48;68149.63;;;5.57;100.00
22930;BME280;11630;42.660;23.292;2023-01-15T08:04:20;68168.56;;;5.72;100.00
22930;BME280;11630;42.660;23.292;2023-01-15T08:06:50;68235.48;;;6.29;100.00
22930;BME280;11630;42.660;23.292;2023-01-15T08:09:21;68299.73;;;6.97;100.00
22930;BME280;11630;42.660;23.292;2023-01-15T08:11:52;68374.84;;;7.62;100.00
22930;BME280;11630;42.660;23.292;2023-01-15T08:14:39;68452.98;;;8.29;100.00
22930;BME280;11630;42.660;23.292;2023-01-15T08:17:26;68511.64;;;8.85;96.97
22930;BME280;11630;42.660;23.292;2023-01-15T08:19:57;68571.41;;;9.42;93.11
22930;BME280;11630;42.660;23.292;2023-01-15T08:22:28;68517.06;;;8.92;90.81
22930;BME280;11630;42.660;23.292;2023-01-15T08:24:59;68461.41;;;8.40;92.89
22930;BME280;11630;42.660;23.292;2023-01-15T08:27:30;68530.94;;;9.06;91.95
22930;BME280;11630;42.660;23.292;2023-01-15T08:30:01;68598.85;;;9.66;88.55
22930;BME280;11630;42.660;23.292;2023-01-15T08:32:32;68513.55;;;8.88;90.17
22930;BME280;11630;42.660;23.292;2023-01-15T08:35:09;68530.38;;;9.06;89.23
22930;BME280;11630;42.660;23.292;2023-01-15T08:37:35;68509.45;;;8.83;89.50
22930;BME280;11630;42.660;23.292;2023-01-15T08:40:07;68498.33;;;8.74;90.85
22930;BME280;11630;42.660;23.292;2023-01-15T08:42:38;68493.99;;;8.70;90.32
22930;BME280;11630;42.660;23.292;2023-01-15T08:45:09;68446.23;;;8.31;92.72
22930;BME280;11630;42.660;23.292;2023-01-15T08:47:40;68472.53;;;8.44;93.27
22930;BME280;11630;42.660;23.292;2023-01-15T08:50:10;68493.72;;;8.68;93.09
22930;BME280;11630;42.660;23.292;2023-01-15T08:52:40;68523.86;;;8.95;91.92
22930;BME280;11630;42.660;23.292;2023-01-15T08:55:10;68599.39;;;9.69;91.07
22930;BME280;11630;42.660;23.292;2023-01-15T08:57:41;68610.27;;;9.76;87.62
22930;BME280;11630;42.660;23.292;2023-01-15T09:00:13;68651.58;;;10.14;84.98
22930;BME280;11630;42.660;23.292;2023-01-15T09:02:44;68701.09;;;10.62;83.08
22930;BME280;11630;42.660;23.292;2023-01-15T09:05:17;68676.36;;;10.43;81.97
22930;BME280;11630;42.660;23.292;2023-01-15T09:07:48;68653.50;;;10.17;83.82
22930;BME280;11630;42.660;23.292;2023-01-15T09:10:19;68650.23;;;10.14;82.28
22930;BME280;11630;42.660;23.292;2023-01-15T09:12:50;68707.08;;;10.65;81.04
22930;BME280;11630;42.660;23.292;2023-01-15T09:15:21;68709.79;;;10.65;79.67
22930;BME280;11630;42.660;23.292;2023-01-15T09:17:52;68726.11;;;10.79;77.84
22930;BME280;11630;42.660;23.292;2023-01-15T09:20:22;68744.06;;;11.01;78.38
22930;BME280;11630;42.660;23.292;2023-01-15T09:22:51;68757.94;;;11.07;77.41
22930;BME280;11630;42.660;23.292;2023-01-15T09:25:22;68777.54;;;11.28;76.19
22930;BME280;11630;42.660;23.292;2023-01-15T09:27:54;68809.13;;;11.59;73.21
22930;BME280;11630;42.660;23.292;2023-01-15T09:30:26;68793.58;;;11.36;73.98
22930;BME280;11630;42.660;23.292;2023-01-15T09:32:55;68779.16;;;11.29;74.01
22930;BME280;11630;42.660;23.292;2023-01-15T09:35:26;68733.44;;;10.87;75.72
22930;BME280;11630;42.660;23.292;2023-01-15T09:37:58;68682.32;;;10.46;78.50
22930;BME280;11630;42.660;23.292;2023-01-15T09:43:16;68483.95;;;8.62;86.17
22930;BME280;11630;42.660;23.292;2023-01-15T09:45:54;68537.16;;;9.11;87.54
22930;BME280;11630;42.660;23.292;2023-01-15T09:48:44;68553.75;;;9.27;85.75
22930;BME280;11630;42.660;23.292;2023-01-15T09:54:53;68469.02;;;8.47;88.78
22930;BME280;11630;42.660;23.292;2023-01-15T09:57:22;68476.88;;;8.53;88.69
22930;BME280;11630;42.660;23.292;2023-01-15T09:59:55;68453.28;;;8.33;90.72
22930;BME280;11630;42.660;23.292;2023-01-15T10:05:21;68458.17;;;8.40;92.07
22930;BME280;11630;42.660;23.292;2023-01-15T10:10:51;68498.89;;;8.77;90.39
22930;BME280;11630;42.660;23.292;2023-01-15T10:13:42;68445.13;;;8.25;91.79
22930;BME280;11630;42.660;23.292;2023-01-15T10:16:09;68501.03;;;8.74;91.23
22930;BME280;11630;42.660;23.292;2023-01-15T10:18:41;68515.97;;;8.89;89.25
22930;BME280;11630;42.660;23.292;2023-01-15T10:24:09;68516.26;;;8.88;88.69
22930;BME280;11630;42.660;23.292;2023-01-15T10:26:56;68505.13;;;8.79;89.58
22930;BME280;11630;42.660;23.292;2023-01-15T10:29:53;68566.22;;;9.33;89.49
22930;BME280;11630;42.660;23.292;2023-01-15T10:32:34;68652.94;;;10.14;86.47
22930;BME280;11630;42.660;23.292;2023-01-15T10:38:06;68576.27;;;9.41;87.12
22930;BME280;11630;42.660;23.292;2023-01-15T10:41:04;68562.98;;;9.35;87.65
22930;BME280;11630;42.660;23.292;2023-01-15T10:46:23;68577.39;;;9.47;86.83
22930;BME280;11630;42.660;23.292;2023-01-15T10:48:57;68593.41;;;9.61;86.10
22930;BME280;11630;42.660;23.292;2023-01-15T10:51:39;68546.95;;;9.19;86.81
22930;BME280;11630;42.660;23.292;2023-01-15T10:56:46;68455.73;;;8.36;90.55
22930;BME280;11630;42.660;23.292;2023-01-15T10:59:35;68455.44;;;8.35;92.90
22930;BME280;11630;42.660;23.292;2023-01-15T11:02:18;68474.73;;;8.56;94.42
22930;BME280;11630;42.660;23.292;2023-01-15T11:04:45;68562.45;;;9.35;98.78
22930;BME280;11630;42.660;23.292;2023-01-15T11:07:17;68636.92;;;10.03;92.78
22930;BME280;11630;42.660;23.292;2023-01-15T11:09:47;68637.72;;;10.00;88.58
22930;BME280;11630;42.660;23.292;2023-01-15T11:12:28;68635.01;;;10.00;86.79
22930;BME280;11630;42.660;23.292;2023-01-15T11:15:17;68576.56;;;9.45;87.68
22930;BME280;11630;42.660;23.292;2023-01-15T11:18:03;68599.39;;;9.66;87.71
22930;BME280;11630;42.660;23.292;2023-01-15T11:20:50;68611.09;;;9.83;87.18
22930;BME280;11630;42.660;23.292;2023-01-15T11:23:21;68542.05;;;9.15;89.30
22930;BME280;11630;42.660;23.292;2023-01-15T11:26:00;68581.73;;;9.51;88.33
22930;BME280;11630;42.660;23.292;2023-01-15T11:28:39;68583.64;;;9.57;87.96
22930;BME280;11630;42.660;23.292;2023-01-15T11:31:11;68624.93;;;9.92;87.23
22930;BME280;11630;42.660;23.292;2023-01-15T11:33:59;68607.27;;;9.75;86.72
22930;BME280;11630;42.660;23.292;2023-01-15T11:36:30;68560.80;;;9.33;88.56
22930;BME280;11630;42.660;23.292;2023-01-15T11:39:00;68539.34;;;9.15;91.27
22930;BME280;11630;42.660;23.292;2023-01-15T11:41:34;68524.41;;;9.00;92.79
22930;BME280;11630;42.660;23.292;2023-01-15T11:44:21;68508.66;;;8.86;91.75
22930;BME280;11630;42.660;23.292;2023-01-15T11:47:13;68552.36;;;9.19;90.78
22930;BME280;11630;42.660;23.292;2023-01-15T11:49:59;68475.00;;;8.57;92.47
22930;BME280;11630;42.660;23.292;2023-01-15T11:52:51;68439.45;;;8.21;95.17
22930;BME280;11630;42.660;23.292;2023-01-15T11:55:24;68426.38;;;8.09;96.31
22930;BME280;11630;42.660;23.292;2023-01-15T11:57:57;68440.23;;;8.18;95.84
22930;BME280;11630;42.660;23.292;2023-01-15T12:00:29;68442.98;;;8.28;95.57
22930;BME280;11630;42.660;23.292;2023-01-15T12:03:05;68465.48;;;8.45;94.90
22930;BME280;11630;42.660;23.292;2023-01-15T12:05:35;68466.31;;;8.47;94.93
22930;BME280;11630;42.660;23.292;2023-01-15T12:08:13;68459.23;;;8.38;95.05
22930;BME280;11630;42.660;23.292;2023-01-15T12:10:45;68438.62;;;8.19;95.47
22930;BME280;11630;42.660;23.292;2023-01-15T12:16:32;68400.88;;;7.86;96.93
22930;BME280;11630;42.660;23.292;2023-01-15T12:22:05;68398.98;;;7.85;97.22
22930;BME280;11630;42.660;23.292;2023-01-15T12:35:59;68398.44;;;7.82;99.05
22930;BME280;11630;42.660;23.292;2023-01-15T12:38:46;68394.09;;;7.78;99.93
22930;BME280;11630;42.660;23.292;2023-01-15T12:41:26;68397.61;;;7.78;100.00
22930;BME280;11630;42.660;23.292;2023-01-15T12:43:57;68399.53;;;7.86;100.00
22930;BME280;11630;42.660;23.292;2023-01-15T12:46:45;68416.89;;;7.99;100.00
22930;BME280;11630;42.660;23.292;2023-01-15T12:49:34;68394.91;;;7.80;100.00
22930;BME280;11630;42.660;23.292;2023-01-15T12:52:07;68393.02;;;7.77;100.00
22930;BME280;11630;42.660;23.292;2023-01-15T12:54:47;68391.11;;;7.77;100.00
22930;BME280;11630;42.660;23.292;2023-01-15T12:57:14;68401.16;;;7.87;100.00
22930;BME280;11630;42.660;23.292;2023-01-15T12:59:50;68401.69;;;7.85;100.00
22930;BME280;11630;42.660;23.292;2023-01-15T13:02:25;68408.17;;;7.86;100.00
22930;BME280;11630;42.660;23.292;2023-01-15T13:05:03;68400.61;;;7.84;100.00
22930;BME280;11630;42.660;23.292;2023-01-15T13:07:34;68395.73;;;7.82;100.00
22930;BME280;11630;42.660;23.292;2023-01-15T13:10:21;68395.17;;;7.79;100.00
22930;BME280;11630;42.660;23.292;2023-01-15T13:12:52;68408.48;;;7.95;100.00
22930;BME280;11630;42.660;23.292;2023-01-15T13:15:31;68401.42;;;7.89;100.00
22930;BME280;11630;42.660;23.292;2023-01-15T13:18:09;68403.03;;;7.85;100.00
22930;BME280;11630;42.660;23.292;2023-01-15T13:20:41;68441.86;;;8.22;100.00
22930;BME280;11630;42.660;23.292;2023-01-15T13:33:56;68399.80;;;7.85;100.00
22930;BME280;11630;42.660;23.292;2023-01-15T13:36:32;68387.59;;;7.75;100.00
22930;BME280;11630;42.660;23.292;2023-01-15T13:39:01;68389.23;;;7.76;100.00
22930;BME280;11630;42.660;23.292;2023-01-15T13:41:33;68387.05;;;7.72;100.00
22930;BME280;11630;42.660;23.292;2023-01-15T13:44:24;68387.31;;;7.71;100.00
22930;BME280;11630;42.660;23.292;2023-01-15T13:47:06;68376.19;;;7.62;100.00
22930;BME280;11630;42.660;23.292;2023-01-15T13:49:38;68359.13;;;7.53;100.00
22930;BME280;11630;42.660;23.292;2023-01-15T13:52:21;68379.70;;;7.62;100.00
22930;BME280;11630;42.660;23.292;2023-01-15T13:54:50;68386.53;;;7.76;100.00
22930;BME280;11630;42.660;23.292;2023-01-15T13:57:31;68392.47;;;7.79;100.00
22930;BME280;11630;42.660;23.292;2023-01-15T13:59:55;68386.79;;;7.75;100.00
22930;BME280;11630;42.660;23.292;2023-01-15T14:02:32;68386.23;;;7.72;100.00
22930;BME280;11630;42.660;23.292;2023-01-15T14:05:26;68384.34;;;7.72;100.00
22930;BME280;11630;42.660;23.292;2023-01-15T14:07:54;68391.67;;;7.77;100.00
22930;BME280;11630;42.660;23.292;2023-01-15T14:10:32;68387.04;;;7.69;100.00
22930;BME280;11630;42.660;23.292;2023-01-15T14:21:35;68350.97;;;7.38;100.00
22930;BME280;11630;42.660;23.292;2023-01-15T14:24:22;68348.84;;;7.43;100.00
22930;BME280;11630;42.660;23.292;2023-01-15T14:32:11;68333.11;;;7.31;100.00
22930;BME280;11630;42.660;23.292;2023-01-15T14:34:40;68337.67;;;7.27;100.00
22930;BME280;11630;42.660;23.292;2023-01-15T14:37:22;68337.67;;;7.27;100.00
22930;BME280;11630;42.660;23.292;2023-01-15T14:39:59;68317.09;;;7.13;100.00
22930;BME280;11630;42.660;23.292;2023-01-15T14:42:33;68326.30;;;7.19;100.00
22930;BME280;11630;42.660;23.292;2023-01-15T14:47:58;68315.47;;;7.09;100.00
22930;BME280;11630;42.660;23.292;2023-01-15T14:50:36;68320.03;;;7.07;100.00
22930;BME280;11630;42.660;23.292;2023-01-15T14:53:16;68315.73;;;7.10;100.00
22930;BME280;11630;42.660;23.292;2023-01-15T14:56:22;68337.97;;;7.31;100.00